createdAt,value
2022-12-24T00:01:03.069Z,23.23
2022-12-24T00:03:30.315Z,27.13
2022-12-24T00:05:57.387Z,30.03
2022-12-24T00:08:24.627Z,32.67
2022-12-24T00:10:53.212Z,30.93
2022-12-24T00:13:21.343Z,23.80
2022-12-24T00:15:48.756Z,31.83
2022-12-24T00:18:16.318Z,28.30
2022-12-24T00:20:47.679Z,40.80
2022-12-24T00:23:15.827Z,27.70
2022-12-24T00:25:42.600Z,32.27
2022-12-24T00:28:09.700Z,33.40
2022-12-24T00:30:39.282Z,27.90
2022-12-24T00:33:06.402Z,24.60
2022-12-24T00:35:37.915Z,26.47
2022-12-24T00:38:04.893Z,27.70
2022-12-24T00:40:32.266Z,32.67
2022-12-24T00:42:59.298Z,31.93
2022-12-24T00:45:27.979Z,30.33
2022-12-24T00:47:54.904Z,21.83
2022-12-24T00:50:21.694Z,25.70
2022-12-24T00:52:48.885Z,33.10
2022-12-24T00:55:15.609Z,27.50
2022-12-24T00:57:42.457Z,31.73
2022-12-24T01:00:09.926Z,27.43
2022-12-24T01:02:39.656Z,28.00
2022-12-24T01:05:14.571Z,24.33
2022-12-24T01:07:48.218Z,26.13
2022-12-24T01:10:19.351Z,28.93
2022-12-24T01:12:47.168Z,29.83
2022-12-24T01:15:14.670Z,22.43
2022-12-24T01:17:41.582Z,23.33
2022-12-24T01:20:14.398Z,28.17
2022-12-24T01:22:41.120Z,28.77
2022-12-24T01:25:08.245Z,24.93
2022-12-24T01:27:35.046Z,29.53
2022-12-24T01:30:01.842Z,25.47
2022-12-24T01:32:28.833Z,32.13
2022-12-24T01:34:55.659Z,30.27
2022-12-24T01:37:22.484Z,19.60
2022-12-24T01:39:49.225Z,30.90
2022-12-24T01:42:40.470Z,31.30
2022-12-24T01:45:41.689Z,21.00
2022-12-24T01:48:18.057Z,21.80
2022-12-24T01:50:45.145Z,17.57
2022-12-24T01:53:13.627Z,12.70
2022-12-24T01:55:41.176Z,14.10
2022-12-24T01:58:09.918Z,13.33
2022-12-24T02:00:37.592Z,13.80
2022-12-24T02:03:04.924Z,13.17
2022-12-24T02:05:51.873Z,11.87
2022-12-24T02:08:19.024Z,10.47
2022-12-24T02:10:46.929Z,13.73
2022-12-24T02:13:15.599Z,11.67
2022-12-24T02:16:10.367Z,15.80
2022-12-24T02:18:46.591Z,13.07
2022-12-24T02:21:37.823Z,20.50
2022-12-24T02:24:33.163Z,22.73
2022-12-24T02:27:11.015Z,27.37
2022-12-24T02:30:05.061Z,32.20
2022-12-24T02:32:56.914Z,27.10
2022-12-24T02:35:31.283Z,23.97
2022-12-24T02:38:03.226Z,21.03
2022-12-24T02:40:38.580Z,27.90
2022-12-24T02:43:11.709Z,28.83
2022-12-24T02:45:40.150Z,27.23
2022-12-24T02:48:07.073Z,23.07
2022-12-24T02:50:33.944Z,29.40
2022-12-24T02:53:00.775Z,19.13
2022-12-24T02:55:47.750Z,25.13
2022-12-24T02:59:12.146Z,14.37
2022-12-24T03:01:45.063Z,21.10
2022-12-24T03:04:39.518Z,20.77
2022-12-24T03:07:09.557Z,22.73
2022-12-24T03:10:02.757Z,24.47
2022-12-24T03:12:39.919Z,15.43
2022-12-24T03:15:09.283Z,20.90
2022-12-24T03:17:37.623Z,28.27
2022-12-24T03:20:06.470Z,26.80
2022-12-24T03:22:34.699Z,21.83
2022-12-24T03:25:01.619Z,16.17
2022-12-24T03:27:29.716Z,19.57
2022-12-24T03:29:56.851Z,23.73
2022-12-24T03:32:25.943Z,20.20
2022-12-24T03:34:52.739Z,19.97
2022-12-24T03:37:19.726Z,22.93
2022-12-24T03:39:46.522Z,23.03
2022-12-24T03:42:13.558Z,22.50
2022-12-24T03:44:40.366Z,28.93
2022-12-24T03:47:08.493Z,22.13
2022-12-24T03:49:35.407Z,20.63
2022-12-24T03:52:02.238Z,25.10
2022-12-24T03:54:29.112Z,21.07
2022-12-24T03:56:55.810Z,18.67
2022-12-24T03:59:22.446Z,21.33
2022-12-24T04:01:49.504Z,22.47
2022-12-24T04:04:16.546Z,28.27
2022-12-24T04:06:43.355Z,29.30
2022-12-24T04:09:10.027Z,29.13
2022-12-24T04:11:36.874Z,31.23
2022-12-24T04:14:03.781Z,33.57
2022-12-24T04:16:30.509Z,28.80
2022-12-24T04:18:57.219Z,27.23
2022-12-24T04:21:24.899Z,24.13
2022-12-24T04:23:52.058Z,29.73
2022-12-24T04:26:18.994Z,28.83
2022-12-24T04:28:45.685Z,31.17
2022-12-24T04:31:15.096Z,33.63
2022-12-24T04:33:42.062Z,31.20
2022-12-24T04:36:12.269Z,23.90
2022-12-24T04:38:39.346Z,28.00
2022-12-24T04:41:10.740Z,33.33
2022-12-24T04:43:37.839Z,35.10
2022-12-24T04:46:16.017Z,27.67
2022-12-24T04:48:42.882Z,24.47
2022-12-24T04:51:10.323Z,32.90
2022-12-24T04:53:38.562Z,37.43
2022-12-24T04:56:09.344Z,30.00
2022-12-24T04:58:36.283Z,26.77
2022-12-24T05:01:08.342Z,26.47
2022-12-24T05:03:35.965Z,31.80
2022-12-24T05:06:07.609Z,34.53
2022-12-24T05:08:35.180Z,33.10
2022-12-24T05:11:02.768Z,32.90
2022-12-24T05:13:37.624Z,26.10
2022-12-24T05:16:09.764Z,29.30
2022-12-24T05:18:36.774Z,28.67
2022-12-24T05:21:03.670Z,26.93
2022-12-24T05:23:49.300Z,32.23
2022-12-24T05:26:37.437Z,29.87
2022-12-24T05:29:05.602Z,28.20
2022-12-24T05:31:33.591Z,26.87
2022-12-24T05:34:01.464Z,28.60
2022-12-24T05:36:28.515Z,24.13
2022-12-24T05:38:55.586Z,24.87
2022-12-24T05:41:22.670Z,29.80
2022-12-24T05:43:49.648Z,30.13
2022-12-24T05:46:19.176Z,36.37
2022-12-24T05:48:46.706Z,31.00
2022-12-24T05:51:15.368Z,34.00
2022-12-24T05:53:42.174Z,28.03
2022-12-24T05:56:11.393Z,34.17
2022-12-24T05:58:41.674Z,30.70
2022-12-24T06:01:09.201Z,25.27
2022-12-24T06:03:36.199Z,26.20
2022-12-24T06:06:11.911Z,22.43
2022-12-24T06:08:39.550Z,32.90
2022-12-24T06:11:09.560Z,29.83
2022-12-24T06:13:37.242Z,30.53
2022-12-24T06:16:06.402Z,29.67
2022-12-24T06:18:34.703Z,33.90
2022-12-24T06:21:01.513Z,35.53
2022-12-24T06:23:33.781Z,33.70
2022-12-24T06:26:01.177Z,30.93
2022-12-24T06:28:29.356Z,28.27
2022-12-24T06:31:02.393Z,31.03
2022-12-24T06:33:30.207Z,21.87
2022-12-24T06:35:56.902Z,25.80
2022-12-24T06:38:23.633Z,34.60
2022-12-24T06:40:50.428Z,40.30
2022-12-24T06:43:17.329Z,31.70
2022-12-24T06:45:48.573Z,25.37
2022-12-24T06:48:15.826Z,37.17
2022-12-24T06:50:43.134Z,36.27
2022-12-24T06:53:10.116Z,30.30
2022-12-24T06:55:36.869Z,34.97
2022-12-24T06:58:04.273Z,34.00
2022-12-24T07:00:31.043Z,25.97
2022-12-24T07:02:58.335Z,31.57
2022-12-24T07:05:25.298Z,28.23
2022-12-24T07:07:52.061Z,33.73
2022-12-24T07:10:19.745Z,28.13
2022-12-24T07:12:47.656Z,28.53
2022-12-24T07:15:14.477Z,33.57
2022-12-24T07:17:45.407Z,30.77
2022-12-24T07:20:15.050Z,31.17
2022-12-24T07:22:42.841Z,29.20
2022-12-24T07:25:10.284Z,25.37
2022-12-24T07:27:37.298Z,22.13
2022-12-24T07:30:05.003Z,30.23
2022-12-24T07:32:32.087Z,26.47
2022-12-24T07:34:58.935Z,29.13
2022-12-24T07:37:25.780Z,31.17
2022-12-24T07:39:52.912Z,29.23
2022-12-24T07:42:20.581Z,24.10
2022-12-24T07:44:47.587Z,33.30
2022-12-24T07:47:14.364Z,31.93
2022-12-24T07:49:41.192Z,25.20
2022-12-24T07:52:08.287Z,24.20
2022-12-24T07:54:35.271Z,19.93
2022-12-24T07:57:02.120Z,30.77
2022-12-24T07:59:28.867Z,22.73
2022-12-24T08:01:56.042Z,22.57
2022-12-24T08:04:22.792Z,31.43
2022-12-24T08:06:49.476Z,33.87
2022-12-24T08:09:16.230Z,30.13
2022-12-24T08:11:48.123Z,26.53
2022-12-24T08:14:18.245Z,27.30
2022-12-24T08:16:44.968Z,31.57
2022-12-24T08:19:12.009Z,31.13
2022-12-24T08:21:38.916Z,28.77
2022-12-24T08:24:06.432Z,35.33
2022-12-24T08:26:33.256Z,21.60
2022-12-24T08:29:00.048Z,40.37
2022-12-24T08:31:26.864Z,35.63
2022-12-24T08:33:53.717Z,23.97
2022-12-24T08:36:20.468Z,33.17
2022-12-24T08:38:47.291Z,36.43
2022-12-24T08:41:13.965Z,45.60
2022-12-24T08:43:40.839Z,32.17
2022-12-24T08:46:07.745Z,33.07
2022-12-24T08:48:35.292Z,30.97
2022-12-24T08:51:07.677Z,43.37
2022-12-24T08:53:34.833Z,32.03
2022-12-24T08:56:07.395Z,31.87
2022-12-24T08:58:34.418Z,29.63
2022-12-24T09:01:01.736Z,29.07
2022-12-24T09:03:29.257Z,39.77
2022-12-24T09:05:56.274Z,27.97
2022-12-24T09:08:23.127Z,29.10
2022-12-24T09:10:49.861Z,31.57
2022-12-24T09:13:16.669Z,29.83
2022-12-24T09:15:43.479Z,32.23
2022-12-24T09:18:10.872Z,33.87
2022-12-24T09:20:41.485Z,30.97
2022-12-24T09:23:11.021Z,24.93
2022-12-24T09:25:45.319Z,26.43
2022-12-24T09:28:12.156Z,33.57
2022-12-24T09:30:38.792Z,33.53
2022-12-24T09:33:05.537Z,33.33
2022-12-24T09:35:32.299Z,36.60
2022-12-24T09:38:07.871Z,34.90
2022-12-24T09:40:39.934Z,28.20
2022-12-24T09:43:17.820Z,37.07
2022-12-24T09:45:54.183Z,28.93
2022-12-24T09:48:25.365Z,37.03
2022-12-24T09:50:55.451Z,27.43
2022-12-24T09:53:45.874Z,27.30
2022-12-24T09:56:31.333Z,20.30
2022-12-24T09:59:02.840Z,30.37
2022-12-24T10:01:31.378Z,33.07
2022-12-24T10:04:19.479Z,36.83
2022-12-24T10:07:11.288Z,39.40
2022-12-24T10:09:52.956Z,33.53
2022-12-24T10:12:47.738Z,21.57
2022-12-24T10:15:22.423Z,43.17
2022-12-24T10:17:52.311Z,28.47
2022-12-24T10:20:37.680Z,21.07
2022-12-24T10:23:11.139Z,32.17
2022-12-24T10:26:26.300Z,37.43
2022-12-24T10:29:22.355Z,29.10
2022-12-24T10:31:58.000Z,28.70
2022-12-24T10:34:28.920Z,23.37
2022-12-24T10:36:56.385Z,34.23
2022-12-24T10:39:25.434Z,26.53
2022-12-24T10:41:55.325Z,26.10
2022-12-24T10:44:24.935Z,21.57
2022-12-24T10:46:51.698Z,29.90
2022-12-24T10:49:45.169Z,36.50
2022-12-24T10:52:15.285Z,21.10
2022-12-24T10:55:11.450Z,24.67
2022-12-24T10:57:39.080Z,23.40
2022-12-24T11:00:07.882Z,34.83
2022-12-24T11:02:37.381Z,26.33
2022-12-24T11:05:07.773Z,28.97
2022-12-24T11:07:34.768Z,32.17
2022-12-24T11:10:05.584Z,24.70
2022-12-24T11:12:38.227Z,38.20
2022-12-24T11:15:07.077Z,34.23
2022-12-24T11:17:34.211Z,23.07
2022-12-24T11:20:03.488Z,32.40
2022-12-24T11:22:31.726Z,37.57
2022-12-24T11:25:00.466Z,30.13
2022-12-24T11:27:33.724Z,28.43
2022-12-24T11:30:33.322Z,26.47
2022-12-24T11:33:00.528Z,29.00
2022-12-24T11:35:28.924Z,30.50
2022-12-24T11:38:01.624Z,41.17
2022-12-24T11:40:40.716Z,28.50
2022-12-24T11:43:15.920Z,32.53
2022-12-24T11:45:49.888Z,25.87
2022-12-24T11:48:33.904Z,30.07
2022-12-24T11:51:03.112Z,31.10
2022-12-24T11:53:47.885Z,31.87
2022-12-24T11:56:33.105Z,23.70
2022-12-24T11:59:10.422Z,34.30
2022-12-24T12:01:45.147Z,36.50
2022-12-24T12:04:22.220Z,28.20
2022-12-24T12:06:56.355Z,35.37
2022-12-24T12:09:44.566Z,30.37
2022-12-24T12:12:19.582Z,24.60
2022-12-24T12:14:53.659Z,29.80
2022-12-24T12:17:35.898Z,30.70
2022-12-24T12:20:14.757Z,27.80
2022-12-24T12:23:04.142Z,25.17
2022-12-24T12:25:40.027Z,29.30
2022-12-24T12:28:22.471Z,25.77
2022-12-24T12:31:11.915Z,33.50
2022-12-24T12:34:17.164Z,24.93
2022-12-24T12:36:53.582Z,24.67
2022-12-24T12:39:20.412Z,30.50
2022-12-24T12:42:02.588Z,22.23
2022-12-24T12:44:45.491Z,25.27
2022-12-24T12:47:51.362Z,31.27
2022-12-24T12:50:33.167Z,24.87
2022-12-24T12:53:15.141Z,27.53
2022-12-24T12:56:00.695Z,23.77
2022-12-24T12:58:44.834Z,32.40
2022-12-24T13:01:32.075Z,21.10
2022-12-24T13:04:24.613Z,27.23
2022-12-24T13:07:24.036Z,25.93
2022-12-24T13:10:20.157Z,26.60
2022-12-24T13:13:20.433Z,26.57
2022-12-24T13:16:15.253Z,25.40
2022-12-24T13:19:11.547Z,26.43
2022-12-24T13:21:43.181Z,27.87
2022-12-24T13:24:26.202Z,21.97
2022-12-24T13:27:07.747Z,25.87
2022-12-24T13:29:43.671Z,31.00
2022-12-24T13:32:22.862Z,26.50
2022-12-24T13:34:56.133Z,24.10
2022-12-24T13:37:32.418Z,26.60
2022-12-24T13:40:15.836Z,21.93
2022-12-24T13:42:59.424Z,19.90
2022-12-24T13:45:29.069Z,18.10
2022-12-24T13:48:02.032Z,32.03
2022-12-24T13:50:50.220Z,25.43
2022-12-24T13:53:26.595Z,19.67
2022-12-24T13:55:59.993Z,31.80
2022-12-24T13:58:28.407Z,25.97
2022-12-24T14:01:03.232Z,29.70
2022-12-24T14:03:33.829Z,21.07
2022-12-24T14:06:13.007Z,25.30
2022-12-24T14:08:47.032Z,37.70
2022-12-24T14:11:22.428Z,22.57
2022-12-24T14:13:49.223Z,23.97
2022-12-24T14:16:18.936Z,25.40
2022-12-24T14:18:50.772Z,26.07
2022-12-24T14:21:22.825Z,27.63
2022-12-24T14:24:02.959Z,26.60
2022-12-24T14:26:38.045Z,18.60
2022-12-24T14:29:12.046Z,23.27
2022-12-24T14:31:38.910Z,24.10
2022-12-24T14:34:13.127Z,19.80
2022-12-24T14:36:43.494Z,28.83
2022-12-24T14:39:15.198Z,29.13
2022-12-24T14:41:51.072Z,26.93
2022-12-24T14:44:35.419Z,26.50
2022-12-24T14:47:24.577Z,29.40
2022-12-24T14:50:16.228Z,28.57
2022-12-24T14:53:06.215Z,19.90
2022-12-24T14:55:40.803Z,26.87
2022-12-24T14:58:33.641Z,28.10
2022-12-24T15:01:04.333Z,24.37
2022-12-24T15:03:33.207Z,25.37
2022-12-24T15:06:03.104Z,25.37
2022-12-24T15:08:38.196Z,23.23
2022-12-24T15:11:07.970Z,16.00
2022-12-24T15:13:37.863Z,22.13
2022-12-24T15:16:15.894Z,20.10
2022-12-24T15:18:49.444Z,24.93
2022-12-24T15:21:37.791Z,17.87
2022-12-24T15:24:04.937Z,28.33
2022-12-24T15:26:36.601Z,20.93
2022-12-24T15:29:17.473Z,20.23
2022-12-24T15:31:44.356Z,20.53
2022-12-24T15:34:35.331Z,23.83
2022-12-24T15:37:12.619Z,31.07
2022-12-24T15:39:40.260Z,25.73
2022-12-24T15:42:15.119Z,24.33
2022-12-24T15:44:47.537Z,20.90
2022-12-24T15:47:18.098Z,28.07
2022-12-24T15:49:49.034Z,21.97
2022-12-24T15:52:18.217Z,25.30
2022-12-24T15:54:52.330Z,27.93
2022-12-24T15:57:27.119Z,21.13
2022-12-24T15:59:58.236Z,17.50
2022-12-24T16:02:25.217Z,20.97
2022-12-24T16:04:52.553Z,20.47
2022-12-24T16:07:26.797Z,27.73
2022-12-24T16:10:13.695Z,22.23
2022-12-24T16:12:41.031Z,26.57
2022-12-24T16:15:14.516Z,23.00
2022-12-24T16:17:41.540Z,26.13
2022-12-24T16:20:18.121Z,31.77
2022-12-24T16:22:46.705Z,26.27
2022-12-24T16:25:28.673Z,30.57
2022-12-24T16:28:00.117Z,31.07
2022-12-24T16:30:27.634Z,25.17
2022-12-24T16:32:54.629Z,25.37
2022-12-24T16:35:26.962Z,25.77
2022-12-24T16:37:54.848Z,31.50
2022-12-24T16:40:26.898Z,20.57
2022-12-24T16:43:14.601Z,31.23
2022-12-24T16:45:42.540Z,26.20
2022-12-24T16:48:11.382Z,32.10
2022-12-24T16:50:38.159Z,32.63
2022-12-24T16:53:05.047Z,27.67
2022-12-24T16:55:32.947Z,26.37
2022-12-24T16:57:59.947Z,24.97
2022-12-24T17:00:26.862Z,26.47
2022-12-24T17:02:54.001Z,27.87
2022-12-24T17:05:23.785Z,25.00
2022-12-24T17:07:52.053Z,26.23
2022-12-24T17:10:18.888Z,27.70
2022-12-24T17:12:45.756Z,25.03
2022-12-24T17:15:12.919Z,28.20
2022-12-24T17:17:39.925Z,25.87
2022-12-24T17:20:08.103Z,20.77
2022-12-24T17:22:35.990Z,25.43
2022-12-24T17:25:03.189Z,28.93
2022-12-24T17:27:30.086Z,24.87
2022-12-24T17:29:56.834Z,21.83
2022-12-24T17:32:25.914Z,28.53
2022-12-24T17:34:53.053Z,25.73
2022-12-24T17:37:19.899Z,28.57
2022-12-24T17:39:47.110Z,25.83
2022-12-24T17:42:14.091Z,26.57
2022-12-24T17:44:40.819Z,29.43
2022-12-24T17:47:07.606Z,25.50
2022-12-24T17:49:34.960Z,23.03
2022-12-24T17:52:01.919Z,29.70
2022-12-24T17:54:31.695Z,27.67
2022-12-24T17:57:01.840Z,20.63
2022-12-24T17:59:28.863Z,23.87
2022-12-24T18:01:55.662Z,20.70
2022-12-24T18:04:22.728Z,26.03
2022-12-24T18:06:50.001Z,26.87
2022-12-24T18:09:17.136Z,24.83
2022-12-24T18:11:44.258Z,24.07
2022-12-24T18:14:14.127Z,20.67
2022-12-24T18:16:41.583Z,19.53
2022-12-24T18:19:10.925Z,27.00
2022-12-24T18:21:37.751Z,30.33
2022-12-24T18:24:05.629Z,21.73
2022-12-24T18:26:33.479Z,27.23
2022-12-24T18:29:01.557Z,25.23
2022-12-24T18:31:29.881Z,24.70
2022-12-24T18:33:57.555Z,23.97
2022-12-24T18:36:24.946Z,24.67
2022-12-24T18:38:52.210Z,28.00
2022-12-24T18:41:22.421Z,25.63
2022-12-24T18:43:49.856Z,30.97
2022-12-24T18:46:19.351Z,23.87
2022-12-24T18:48:47.014Z,22.10
2022-12-24T18:51:17.938Z,29.00
2022-12-24T18:53:45.392Z,31.80
2022-12-24T18:56:26.742Z,31.53
2022-12-24T18:58:56.273Z,25.37
2022-12-24T19:01:25.784Z,20.17
2022-12-24T19:03:53.483Z,24.50
2022-12-24T19:06:21.486Z,24.80
2022-12-24T19:08:57.845Z,23.77
2022-12-24T19:11:27.641Z,22.13
2022-12-24T19:13:54.867Z,20.57
2022-12-24T19:16:22.164Z,24.07
2022-12-24T19:18:49.236Z,22.33
2022-12-24T19:21:17.990Z,25.97
2022-12-24T19:23:48.082Z,27.93
2022-12-24T19:26:16.397Z,25.73
2022-12-24T19:28:43.716Z,24.87
2022-12-24T19:31:19.072Z,24.23
2022-12-24T19:33:48.654Z,24.30
2022-12-24T19:36:18.685Z,21.73
2022-12-24T19:38:46.049Z,25.07
2022-12-24T19:41:15.629Z,23.80
2022-12-24T19:43:47.780Z,34.83
2022-12-24T19:46:17.729Z,20.50
2022-12-24T19:48:49.321Z,20.87
2022-12-24T19:51:16.507Z,20.30
2022-12-24T19:53:43.298Z,16.57
2022-12-24T19:56:10.797Z,20.30
2022-12-24T19:58:37.594Z,22.30
2022-12-24T20:01:18.932Z,20.87
2022-12-24T20:03:47.050Z,23.70
2022-12-24T20:06:15.471Z,25.63
2022-12-24T20:08:42.611Z,29.27
2022-12-24T20:11:13.063Z,19.40
2022-12-24T20:13:41.013Z,18.03
2022-12-24T20:16:13.691Z,23.23
2022-12-24T20:18:40.606Z,24.87
2022-12-24T20:21:10.285Z,21.47
2022-12-24T20:23:38.932Z,20.33
2022-12-24T20:26:06.738Z,16.43
2022-12-24T20:28:35.801Z,19.57
2022-12-24T20:31:10.303Z,20.50
2022-12-24T20:33:37.212Z,18.07
2022-12-24T20:36:04.523Z,17.20
2022-12-24T20:38:31.409Z,22.33
2022-12-24T20:40:58.573Z,17.67
2022-12-24T20:43:28.302Z,15.93
2022-12-24T20:45:59.289Z,15.33
2022-12-24T20:48:26.100Z,21.87
2022-12-24T20:50:52.833Z,20.37
2022-12-24T20:53:19.755Z,23.73
2022-12-24T20:55:48.027Z,18.77
2022-12-24T20:58:18.087Z,14.80
2022-12-24T21:00:46.419Z,15.97
2022-12-24T21:03:15.162Z,22.93
2022-12-24T21:05:42.489Z,21.57
2022-12-24T21:08:10.697Z,20.87
2022-12-24T21:10:37.875Z,18.77
2022-12-24T21:13:05.965Z,19.00
2022-12-24T21:15:36.281Z,13.67
2022-12-24T21:18:10.097Z,20.60
2022-12-24T21:20:38.692Z,16.37
2022-12-24T21:23:05.902Z,14.57
2022-12-24T21:25:33.012Z,22.33
2022-12-24T21:27:59.830Z,16.80
2022-12-24T21:30:26.561Z,16.07
2022-12-24T21:32:53.405Z,21.30
2022-12-24T21:35:20.343Z,17.63
2022-12-24T21:37:47.107Z,17.60
2022-12-24T21:40:13.856Z,14.97
2022-12-24T21:42:40.854Z,25.07
2022-12-24T21:45:08.265Z,17.77
2022-12-24T21:47:35.541Z,18.90
2022-12-24T21:50:21.451Z,23.03
2022-12-24T21:53:08.477Z,17.93
2022-12-24T21:55:35.361Z,25.27
2022-12-24T21:58:02.216Z,19.20
2022-12-24T22:00:30.712Z,19.63
2022-12-24T22:02:58.915Z,13.17
2022-12-24T22:05:26.507Z,18.73
2022-12-24T22:08:13.211Z,14.13
2022-12-24T22:10:59.018Z,16.83
2022-12-24T22:13:26.209Z,17.90
2022-12-24T22:15:54.269Z,12.40
2022-12-24T22:18:23.523Z,16.70
2022-12-24T22:20:51.191Z,16.37
2022-12-24T22:23:19.379Z,21.77
2022-12-24T22:25:46.533Z,12.97
2022-12-24T22:28:13.659Z,20.27
2022-12-24T22:30:42.431Z,14.20
2022-12-24T22:33:10.501Z,22.43
2022-12-24T22:35:39.386Z,13.20
2022-12-24T22:38:08.003Z,11.93
2022-12-24T22:40:34.749Z,19.40
2022-12-24T22:43:01.551Z,17.97
2022-12-24T22:45:28.350Z,16.57
2022-12-24T22:47:55.080Z,10.60
2022-12-24T22:50:22.101Z,14.87
2022-12-24T22:52:49.089Z,13.23
2022-12-24T22:55:15.891Z,14.37
2022-12-24T22:57:42.622Z,14.77
2022-12-24T23:00:17.223Z,10.30
2022-12-24T23:02:44.279Z,11.57
2022-12-24T23:05:15.101Z,11.53
2022-12-24T23:07:41.907Z,16.67
2022-12-24T23:10:11.959Z,12.30
2022-12-24T23:12:57.689Z,13.23
2022-12-24T23:15:24.580Z,13.37
2022-12-24T23:17:51.458Z,10.77
2022-12-24T23:20:18.454Z,13.57
2022-12-24T23:22:45.281Z,15.07
2022-12-24T23:25:12.135Z,14.47
2022-12-24T23:27:39.397Z,7.20
2022-12-24T23:30:07.604Z,10.57
2022-12-24T23:32:34.282Z,7.67
2022-12-24T23:35:01.253Z,9.93
2022-12-24T23:37:34.725Z,12.87
2022-12-24T23:40:02.575Z,10.93
2022-12-24T23:42:29.761Z,8.33
2022-12-24T23:44:56.632Z,21.53
2022-12-24T23:47:23.359Z,6.57
2022-12-24T23:49:57.681Z,7.50
2022-12-24T23:52:24.460Z,15.13
2022-12-24T23:54:51.347Z,9.00
2022-12-24T23:57:18.494Z,7.83
2022-12-24T23:59:45.341Z,9.70
